sensor_id;sensor_type;location;lat;lon;timestamp;pressure;altitude;pressure_sealevel;temperature;humidity
6851;BME280;3464;42.728;23.296;2023-05-24T00:01:17;95054.23;;;17.13;75.28
6851;BME280;3464;42.728;23.296;2023-05-24T00:10:25;95066.64;;;17.50;74.34
6851;BME280;3464;42.728;23.296;2023-05-24T00:13:10;95060.68;;;17.70;73.85
6851;BME280;3464;42.728;23.296;2023-05-24T00:16:10;95063.70;;;17.48;74.48
6851;BME280;3464;42.728;23.296;2023-05-24T00:18:50;95063.81;;;17.64;74.39
6851;BME280;3464;42.728;23.296;2023-05-24T00:21:17;95064.46;;;17.54;74.63
6851;BME280;3464;42.728;23.296;2023-05-24T00:23:44;95056.98;;;17.45;74.87
6851;BME280;3464;42.728;23.296;2023-05-24T00:26:11;95054.02;;;17.46;75.32
6851;BME280;3464;42.728;23.296;2023-05-24T00:28:38;95049.14;;;17.34;75.67
6851;BME280;3464;42.728;23.296;2023-05-24T00:31:05;95044.70;;;17.24;75.29
6851;BME280;3464;42.728;23.296;2023-05-24T00:33:34;95054.74;;;17.09;75.08
6851;BME280;3464;42.728;23.296;2023-05-24T00:36:01;95047.99;;;17.07;74.59
6851;BME280;3464;42.728;23.296;2023-05-24T00:38:28;95048.90;;;17.04;74.67
6851;BME280;3464;42.728;23.296;2023-05-24T00:40:54;95044.08;;;16.91;74.57
6851;BME280;3464;42.728;23.296;2023-05-24T00:43:25;95045.05;;;17.26;74.41
6851;BME280;3464;42.728;23.296;2023-05-24T00:46:01;95045.59;;;17.01;73.10
6851;BME280;3464;42.728;23.296;2023-05-24T00:48:20;95048.80;;;16.89;73.15
6851;BME280;3464;42.728;23.296;2023-05-24T00:50:47;95051.70;;;16.92;72.86
6851;BME280;3464;42.728;23.296;2023-05-24T00:53:14;95050.29;;;16.77;72.76
6851;BME280;3464;42.728;23.296;2023-05-24T00:55:41;95055.37;;;16.77;72.49
6851;BME280;3464;42.728;23.296;2023-05-24T00:58:08;95057.09;;;16.74;72.38
6851;BME280;3464;42.728;23.296;2023-05-24T01:00:36;95050.48;;;16.66;72.63
6851;BME280;3464;42.728;23.296;2023-05-24T01:03:03;95044.50;;;16.69;72.85
6851;BME280;3464;42.728;23.296;2023-05-24T01:05:31;95046.75;;;16.62;72.71
6851;BME280;3464;42.728;23.296;2023-05-24T01:08:09;95055.73;;;17.02;72.17
6851;BME280;3464;42.728;23.296;2023-05-24T01:10:46;95068.67;;;16.68;72.60
6851;BME280;3464;42.728;23.296;2023-05-24T01:13:19;95062.50;;;16.58;74.01
6851;BME280;3464;42.728;23.296;2023-05-24T01:15:49;95063.90;;;16.73;73.34
6851;BME280;3464;42.728;23.296;2023-05-24T01:18:19;95066.05;;;16.72;73.33
6851;BME280;3464;42.728;23.296;2023-05-24T01:20:45;95064.54;;;16.62;74.05
6851;BME280;3464;42.728;23.296;2023-05-24T01:23:25;95063.83;;;16.54;74.58
6851;BME280;3464;42.728;23.296;2023-05-24T01:26:19;95067.36;;;16.20;75.67
6851;BME280;3464;42.728;23.296;2023-05-24T01:28:49;95070.68;;;16.51;74.72
6851;BME280;3464;42.728;23.296;2023-05-24T01:31:17;95070.73;;;16.48;74.71
6851;BME280;3464;42.728;23.296;2023-05-24T01:33:45;95075.35;;;16.23;75.18
6851;BME280;3464;42.728;23.296;2023-05-24T01:36:12;95072.94;;;16.39;74.83
6851;BME280;3464;42.728;23.296;2023-05-24T01:38:39;95065.30;;;16.43;74.42
6851;BME280;3464;42.728;23.296;2023-05-24T01:43:59;95065.17;;;16.50;74.54
6851;BME280;3464;42.728;23.296;2023-05-24T01:46:28;95063.11;;;16.48;74.66
6851;BME280;3464;42.728;23.296;2023-05-24T01:49:31;95058.52;;;16.42;74.80
6851;BME280;3464;42.728;23.296;2023-05-24T01:51:43;95059.81;;;16.41;75.05
6851;BME280;3464;42.728;23.296;2023-05-24T01:54:08;95060.64;;;16.43;74.67
6851;BME280;3464;42.728;23.296;2023-05-24T01:56:34;95058.47;;;16.46;74.57
6851;BME280;3464;42.728;23.296;2023-05-24T01:59:01;95060.97;;;16.49;74.21
6851;BME280;3464;42.728;23.296;2023-05-24T02:01:28;95057.25;;;16.43;74.21
6851;BME280;3464;42.728;23.296;2023-05-24T02:03:55;95052.69;;;16.36;74.41
6851;BME280;3464;42.728;23.296;2023-05-24T02:06:24;95057.85;;;16.32;74.85
6851;BME280;3464;42.728;23.296;2023-05-24T02:08:51;95050.65;;;16.31;74.71
6851;BME280;3464;42.728;23.296;2023-05-24T02:11:18;95048.59;;;16.29;75.29
6851;BME280;3464;42.728;23.296;2023-05-24T02:13:46;95050.00;;;16.19;76.50
6851;BME280;3464;42.728;23.296;2023-05-24T02:16:12;95050.28;;;16.28;75.77
6851;BME280;3464;42.728;23.296;2023-05-24T02:18:39;95049.48;;;16.26;75.24
6851;BME280;3464;42.728;23.296;2023-05-24T02:21:06;95053.34;;;16.22;74.97
6851;BME280;3464;42.728;23.296;2023-05-24T02:23:34;95046.14;;;16.23;74.88
6851;BME280;3464;42.728;23.296;2023-05-24T02:26:02;95049.66;;;16.16;75.65
6851;BME280;3464;42.728;23.296;2023-05-24T02:28:30;95055.18;;;16.14;75.80
6851;BME280;3464;42.728;23.296;2023-05-24T02:30:58;95054.00;;;16.08;76.91
6851;BME280;3464;42.728;23.296;2023-05-24T02:33:25;95049.27;;;16.64;75.50
6851;BME280;3464;42.728;23.296;2023-05-24T02:35:53;95040.98;;;16.26;76.43
6851;BME280;3464;42.728;23.296;2023-05-24T02:38:20;95046.17;;;16.21;77.01
6851;BME280;3464;42.728;23.296;2023-05-24T02:40:47;95054.69;;;16.45;76.53
6851;BME280;3464;42.728;23.296;2023-05-24T02:43:15;95050.05;;;16.42;75.66
6851;BME280;3464;42.728;23.296;2023-05-24T02:45:43;95050.77;;;16.50;75.90
6851;BME280;3464;42.728;23.296;2023-05-24T02:48:09;95048.88;;;16.36;76.39
6851;BME280;3464;42.728;23.296;2023-05-24T02:50:36;95050.05;;;16.42;76.14
6851;BME280;3464;42.728;23.296;2023-05-24T02:53:04;95055.44;;;16.51;75.62
6851;BME280;3464;42.728;23.296;2023-05-24T02:55:31;95055.09;;;16.46;75.65
6851;BME280;3464;42.728;23.296;2023-05-24T02:57:58;95063.83;;;16.28;76.50
6851;BME280;3464;42.728;23.296;2023-05-24T03:00:25;95056.05;;;16.64;75.25
6851;BME280;3464;42.728;23.296;2023-05-24T03:02:52;95057.31;;;16.63;75.34
6851;BME280;3464;42.728;23.296;2023-05-24T03:05:24;95056.46;;;16.63;75.01
6851;BME280;3464;42.728;23.296;2023-05-24T03:07:52;95061.27;;;16.78;75.00
6851;BME280;3464;42.728;23.296;2023-05-24T03:10:19;95061.27;;;17.00;73.99
6851;BME280;3464;42.728;23.296;2023-05-24T03:12:47;95061.22;;;17.04;73.54
6851;BME280;3464;42.728;23.296;2023-05-24T03:15:14;95056.96;;;17.26;72.70
6851;BME280;3464;42.728;23.296;2023-05-24T03:17:40;95062.14;;;17.42;71.88
6851;BME280;3464;42.728;23.296;2023-05-24T03:20:08;95069.78;;;17.62;71.44
6851;BME280;3464;42.728;23.296;2023-05-24T03:22:35;95068.25;;;17.73;70.27
6851;BME280;3464;42.728;23.296;2023-05-24T03:25:03;95067.27;;;17.79;70.14
6851;BME280;3464;42.728;23.296;2023-05-24T03:27:33;95070.80;;;18.10;69.38
6851;BME280;3464;42.728;23.296;2023-05-24T03:29:59;95077.70;;;18.24;68.42
6851;BME280;3464;42.728;23.296;2023-05-24T03:32:26;95068.00;;;19.64;66.19
6851;BME280;3464;42.728;23.296;2023-05-24T03:34:53;95067.89;;;22.68;57.44
6851;BME280;3464;42.728;23.296;2023-05-24T03:37:19;95067.11;;;22.56;55.86
6851;BME280;3464;42.728;23.296;2023-05-24T03:39:49;95073.81;;;22.99;54.08
6851;BME280;3464;42.728;23.296;2023-05-24T03:42:15;95074.02;;;24.63;50.39
6851;BME280;3464;42.728;23.296;2023-05-24T03:44:58;95074.46;;;27.02;45.77
6851;BME280;3464;42.728;23.296;2023-05-24T03:47:33;95065.09;;;28.13;42.94
6851;BME280;3464;42.728;23.296;2023-05-24T03:49:59;95064.95;;;27.74;42.11
6851;BME280;3464;42.728;23.296;2023-05-24T03:52:26;95061.77;;;27.20;42.27
6851;BME280;3464;42.728;23.296;2023-05-24T03:54:52;95062.56;;;27.77;40.78
6851;BME280;3464;42.728;23.296;2023-05-24T03:57:19;95065.98;;;29.31;40.01
6851;BME280;3464;42.728;23.296;2023-05-24T03:59:47;95064.20;;;29.57;38.02
6851;BME280;3464;42.728;23.296;2023-05-24T04:02:14;95063.89;;;29.80;37.28
6851;BME280;3464;42.728;23.296;2023-05-24T04:04:41;95069.23;;;31.43;35.58
6851;BME280;3464;42.728;23.296;2023-05-24T04:07:07;95067.57;;;30.61;35.65
6851;BME280;3464;42.728;23.296;2023-05-24T04:09:34;95058.13;;;32.83;33.54
6851;BME280;3464;42.728;23.296;2023-05-24T04:12:02;95064.75;;;32.12;33.13
6851;BME280;3464;42.728;23.296;2023-05-24T04:14:29;95065.78;;;30.62;34.69
6851;BME280;3464;42.728;23.296;2023-05-24T04:16:55;95070.03;;;30.69;35.31
6851;BME280;3464;42.728;23.296;2023-05-24T04:19:27;95065.67;;;32.33;33.58
6851;BME280;3464;42.728;23.296;2023-05-24T04:22:12;95069.36;;;33.76;31.01
6851;BME280;3464;42.728;23.296;2023-05-24T04:24:39;95070.62;;;33.82;30.77
6851;BME280;3464;42.728;23.296;2023-05-24T04:27:07;95068.14;;;34.94;30.03
6851;BME280;3464;42.728;23.296;2023-05-24T04:29:34;95066.87;;;35.96;28.30
6851;BME280;3464;42.728;23.296;2023-05-24T04:32:03;95065.78;;;35.99;28.32
6851;BME280;3464;42.728;23.296;2023-05-24T04:34:32;95069.61;;;33.58;29.48
6851;BME280;3464;42.728;23.296;2023-05-24T04:36:59;95072.50;;;32.56;31.57
6851;BME280;3464;42.728;23.296;2023-05-24T04:39:28;95073.88;;;32.98;31.43
6851;BME280;3464;42.728;23.296;2023-05-24T04:41:54;95081.62;;;33.13;30.86
6851;BME280;3464;42.728;23.296;2023-05-24T04:44:22;95077.75;;;35.78;28.22
6851;BME280;3464;42.728;23.296;2023-05-24T04:46:49;95073.80;;;36.74;27.46
6851;BME280;3464;42.728;23.296;2023-05-24T04:49:18;95081.69;;;35.46;28.52
6851;BME280;3464;42.728;23.296;2023-05-24T04:51:45;95074.62;;;36.06;28.24
6851;BME280;3464;42.728;23.296;2023-05-24T04:54:12;95083.32;;;33.25;31.12
6851;BME280;3464;42.728;23.296;2023-05-24T04:56:41;95089.75;;;35.05;29.06
6851;BME280;3464;42.728;23.296;2023-05-24T04:59:09;95084.39;;;37.25;27.34
6851;BME280;3464;42.728;23.296;2023-05-24T05:01:37;95086.15;;;37.86;26.08
6851;BME280;3464;42.728;23.296;2023-05-24T05:04:04;95093.27;;;38.19;25.13
6851;BME280;3464;42.728;23.296;2023-05-24T05:06:32;95093.71;;;37.54;26.17
6851;BME280;3464;42.728;23.296;2023-05-24T05:09:00;95092.36;;;36.63;26.85
6851;BME280;3464;42.728;23.296;2023-05-24T05:11:27;95097.88;;;37.82;25.43
6851;BME280;3464;42.728;23.296;2023-05-24T05:13:53;95099.75;;;35.67;27.30
6851;BME280;3464;42.728;23.296;2023-05-24T05:16:20;95098.61;;;37.67;26.08
6851;BME280;3464;42.728;23.296;2023-05-24T05:18:48;95099.29;;;38.49;24.94
6851;BME280;3464;42.728;23.296;2023-05-24T05:21:15;95101.63;;;39.66;24.08
6851;BME280;3464;42.728;23.296;2023-05-24T05:23:43;95095.63;;;39.52;23.97
6851;BME280;3464;42.728;23.296;2023-05-24T05:26:10;95094.33;;;40.89;22.67
6851;BME280;3464;42.728;23.296;2023-05-24T05:28:37;95097.95;;;40.07;23.24
6851;BME280;3464;42.728;23.296;2023-05-24T05:31:05;95102.17;;;36.69;25.89
6851;BME280;3464;42.728;23.296;2023-05-24T05:33:35;95090.95;;;39.47;23.78
6851;BME280;3464;42.728;23.296;2023-05-24T05:36:03;95098.33;;;39.07;24.02
6851;BME280;3464;42.728;23.296;2023-05-24T05:38:32;95106.16;;;36.65;26.14
6851;BME280;3464;42.728;23.296;2023-05-24T05:40:58;95102.44;;;38.36;24.57
6851;BME280;3464;42.728;23.296;2023-05-24T05:43:25;95102.06;;;37.67;25.19
6851;BME280;3464;42.728;23.296;2023-05-24T05:45:53;95100.87;;;35.55;27.31
6851;BME280;3464;42.728;23.296;2023-05-24T05:48:21;95102.71;;;39.36;24.07
6851;BME280;3464;42.728;23.296;2023-05-24T05:50:47;95105.06;;;38.28;25.02
6851;BME280;3464;42.728;23.296;2023-05-24T05:53:15;95109.30;;;40.19;23.71
6851;BME280;3464;42.728;23.296;2023-05-24T05:55:43;95099.42;;;41.73;22.01
6851;BME280;3464;42.728;23.296;2023-05-24T05:58:11;95100.41;;;40.16;23.15
6851;BME280;3464;42.728;23.296;2023-05-24T06:00:38;95108.74;;;40.82;22.59
6851;BME280;3464;42.728;23.296;2023-05-24T06:03:04;95107.30;;;40.53;22.93
6851;BME280;3464;42.728;23.296;2023-05-24T06:05:30;95105.63;;;42.06;21.37
6851;BME280;3464;42.728;23.296;2023-05-24T06:07:57;95110.31;;;41.93;21.68
6851;BME280;3464;42.728;23.296;2023-05-24T06:10:26;95107.56;;;44.55;20.00
6851;BME280;3464;42.728;23.296;2023-05-24T06:12:56;95105.64;;;45.89;18.82
6851;BME280;3464;42.728;23.296;2023-05-24T06:15:22;95108.41;;;46.81;18.27
6851;BME280;3464;42.728;23.296;2023-05-24T06:17:50;95103.16;;;46.04;18.63
6851;BME280;3464;42.728;23.296;2023-05-24T06:20:17;95109.41;;;43.27;20.30
6851;BME280;3464;42.728;23.296;2023-05-24T06:22:43;95105.13;;;43.36;20.45
6851;BME280;3464;42.728;23.296;2023-05-24T06:25:12;95102.58;;;44.43;19.67
6851;BME280;3464;42.728;23.296;2023-05-24T06:27:39;95099.70;;;46.18;18.92
6851;BME280;3464;42.728;23.296;2023-05-24T06:30:09;95102.16;;;46.88;18.30
6851;BME280;3464;42.728;23.296;2023-05-24T06:32:36;95098.17;;;47.41;18.24
6851;BME280;3464;42.728;23.296;2023-05-24T06:35:05;95105.34;;;47.60;18.05
6851;BME280;3464;42.728;23.296;2023-05-24T06:37:33;95101.75;;;46.21;18.87
6851;BME280;3464;42.728;23.296;2023-05-24T06:40:02;95101.47;;;45.87;18.51
6851;BME280;3464;42.728;23.296;2023-05-24T06:42:29;95097.53;;;42.30;21.12
6851;BME280;3464;42.728;23.296;2023-05-24T06:45:02;95102.69;;;43.59;20.38
6851;BME280;3464;42.728;23.296;2023-05-24T06:47:29;95102.77;;;45.51;18.90
6851;BME280;3464;42.728;23.296;2023-05-24T06:49:56;95090.59;;;45.69;18.91
6851;BME280;3464;42.728;23.296;2023-05-24T06:52:23;95094.20;;;46.75;18.28
6851;BME280;3464;42.728;23.296;2023-05-24T06:54:51;95099.73;;;47.49;17.62
6851;BME280;3464;42.728;23.296;2023-05-24T06:57:17;95100.02;;;45.49;19.05
6851;BME280;3464;42.728;23.296;2023-05-24T06:59:44;95095.74;;;46.77;18.81
6851;BME280;3464;42.728;23.296;2023-05-24T07:02:25;95087.50;;;44.29;19.43
6851;BME280;3464;42.728;23.296;2023-05-24T07:04:55;95088.81;;;44.90;19.39
6851;BME280;3464;42.728;23.296;2023-05-24T07:07:22;95078.80;;;45.25;18.98
6851;BME280;3464;42.728;23.296;2023-05-24T07:09:50;95089.58;;;46.58;18.22
6851;BME280;3464;42.728;23.296;2023-05-24T07:12:18;95086.81;;;45.97;18.48
6851;BME280;3464;42.728;23.296;2023-05-24T07:14:45;95092.64;;;44.03;20.07
6851;BME280;3464;42.728;23.296;2023-05-24T07:17:12;95089.27;;;45.40;19.23
6851;BME280;3464;42.728;23.296;2023-05-24T07:19:40;95090.59;;;47.01;18.21
6851;BME280;3464;42.728;23.296;2023-05-24T07:22:08;95093.45;;;46.55;18.60
6851;BME280;3464;42.728;23.296;2023-05-24T07:24:34;95095.42;;;47.58;17.79
6851;BME280;3464;42.728;23.296;2023-05-24T07:27:02;95090.93;;;46.41;18.32
6851;BME280;3464;42.728;23.296;2023-05-24T07:29:28;95095.17;;;46.23;18.53
6851;BME280;3464;42.728;23.296;2023-05-24T07:31:57;95092.60;;;46.26;18.96
6851;BME280;3464;42.728;23.296;2023-05-24T07:34:25;95099.42;;;44.87;19.40
6851;BME280;3464;42.728;23.296;2023-05-24T07:36:53;95091.30;;;45.38;19.26
6851;BME280;3464;42.728;23.296;2023-05-24T07:39:21;95098.63;;;46.34;18.84
6851;BME280;3464;42.728;23.296;2023-05-24T07:41:47;95093.48;;;45.05;19.47
6851;BME280;3464;42.728;23.296;2023-05-24T07:44:17;95091.42;;;44.02;20.26
6851;BME280;3464;42.728;23.296;2023-05-24T07:46:45;95095.81;;;45.47;19.83
6851;BME280;3464;42.728;23.296;2023-05-24T07:49:11;95092.02;;;43.42;20.75
6851;BME280;3464;42.728;23.296;2023-05-24T07:51:37;95093.88;;;46.14;18.76
6851;BME280;3464;42.728;23.296;2023-05-24T07:54:05;95087.61;;;46.14;18.49
6851;BME280;3464;42.728;23.296;2023-05-24T07:56:32;95085.81;;;46.68;18.10
6851;BME280;3464;42.728;23.296;2023-05-24T07:58:58;95085.59;;;47.24;17.97
6851;BME280;3464;42.728;23.296;2023-05-24T08:01:25;95090.12;;;46.95;18.06
6851;BME280;3464;42.728;23.296;2023-05-24T08:03:52;95086.10;;;44.74;19.58
6851;BME280;3464;42.728;23.296;2023-05-24T08:06:19;95083.30;;;42.95;20.61
6851;BME280;3464;42.728;23.296;2023-05-24T08:08:47;95079.32;;;42.23;21.68
6851;BME280;3464;42.728;23.296;2023-05-24T08:11:35;95081.90;;;41.35;22.13
6851;BME280;3464;42.728;23.296;2023-05-24T08:14:12;95087.12;;;39.78;23.34
6851;BME280;3464;42.728;23.296;2023-05-24T08:16:41;95083.84;;;39.28;24.52
6851;BME280;3464;42.728;23.296;2023-05-24T08:19:20;95075.01;;;40.62;23.26
6851;BME280;3464;42.728;23.296;2023-05-24T08:21:51;95073.09;;;39.46;23.80
6851;BME280;3464;42.728;23.296;2023-05-24T08:24:19;95071.95;;;38.55;23.52
6851;BME280;3464;42.728;23.296;2023-05-24T08:26:46;95077.06;;;37.20;25.26
6851;BME280;3464;42.728;23.296;2023-05-24T08:29:17;95078.92;;;35.80;26.54
6851;BME280;3464;42.728;23.296;2023-05-24T08:31:49;95074.71;;;35.78;26.09
6851;BME280;3464;42.728;23.296;2023-05-24T08:34:16;95079.34;;;34.46;26.33
6851;BME280;3464;42.728;23.296;2023-05-24T08:39:55;95077.66;;;33.76;27.13
6851;BME280;3464;42.728;23.296;2023-05-24T08:42:29;95078.47;;;33.87;27.72
6851;BME280;3464;42.728;23.296;2023-05-24T08:45:02;95074.09;;;33.72;26.75
6851;BME280;3464;42.728;23.296;2023-05-24T08:47:35;95076.20;;;33.68;27.38
6851;BME280;3464;42.728;23.296;2023-05-24T08:50:09;95069.87;;;31.86;28.35
6851;BME280;3464;42.728;23.296;2023-05-24T08:52:40;95078.16;;;31.40;28.79
6851;BME280;3464;42.728;23.296;2023-05-24T08:55:09;95075.09;;;30.89;29.34
6851;BME280;3464;42.728;23.296;2023-05-24T08:57:41;95077.29;;;31.06;29.33
6851;BME280;3464;42.728;23.296;2023-05-24T09:00:12;95069.98;;;32.01;28.27
6851;BME280;3464;42.728;23.296;2023-05-24T09:02:42;95069.02;;;32.18;28.02
6851;BME280;3464;42.728;23.296;2023-05-24T09:05:10;95063.88;;;31.79;28.68
6851;BME280;3464;42.728;23.296;2023-05-24T09:07:36;95066.56;;;32.06;29.25
6851;BME280;3464;42.728;23.296;2023-05-24T09:10:04;95077.54;;;31.31;30.25
6851;BME280;3464;42.728;23.296;2023-05-24T09:12:30;95070.52;;;30.51;30.38
6851;BME280;3464;42.728;23.296;2023-05-24T09:14:58;95058.84;;;29.72;30.84
6851;BME280;3464;42.728;23.296;2023-05-24T09:17:29;95069.55;;;30.10;30.52
6851;BME280;3464;42.728;23.296;2023-05-24T09:20:07;95072.53;;;29.43;32.12
6851;BME280;3464;42.728;23.296;2023-05-24T09:22:36;95070.12;;;29.27;31.80
6851;BME280;3464;42.728;23.296;2023-05-24T09:25:05;95055.95;;;29.45;31.63
6851;BME280;3464;42.728;23.296;2023-05-24T09:27:34;95060.38;;;30.17;30.70
6851;BME280;3464;42.728;23.296;2023-05-24T09:30:01;95057.66;;;30.90;30.68
6851;BME280;3464;42.728;23.296;2023-05-24T09:32:28;95061.58;;;31.30;30.09
6851;BME280;3464;42.728;23.296;2023-05-24T09:34:59;95056.88;;;31.23;29.98
6851;BME280;3464;42.728;23.296;2023-05-24T09:37:26;95056.78;;;31.97;29.18
6851;BME280;3464;42.728;23.296;2023-05-24T09:39:53;95053.20;;;31.88;29.26
6851;BME280;3464;42.728;23.296;2023-05-24T09:42:24;95056.20;;;31.83;29.64
6851;BME280;3464;42.728;23.296;2023-05-24T09:45:09;95064.09;;;29.90;29.63
6851;BME280;3464;42.728;23.296;2023-05-24T09:47:38;95055.98;;;30.78;28.83
6851;BME280;3464;42.728;23.296;2023-05-24T09:50:11;95059.27;;;30.56;28.83
6851;BME280;3464;42.728;23.296;2023-05-24T09:52:39;95057.44;;;30.76;28.96
6851;BME280;3464;42.728;23.296;2023-05-24T09:55:15;95055.50;;;29.95;29.50
6851;BME280;3464;42.728;23.296;2023-05-24T09:57:49;95061.34;;;30.81;28.96
6851;BME280;3464;42.728;23.296;2023-05-24T10:00:20;95053.20;;;31.32;28.36
6851;BME280;3464;42.728;23.296;2023-05-24T10:02:58;95044.48;;;31.88;27.56
6851;BME280;3464;42.728;23.296;2023-05-24T10:05:15;95046.48;;;31.63;28.14
6851;BME280;3464;42.728;23.296;2023-05-24T10:07:44;95050.00;;;31.85;27.28
6851;BME280;3464;42.728;23.296;2023-05-24T10:10:11;95052.21;;;30.82;27.70
6851;BME280;3464;42.728;23.296;2023-05-24T10:12:42;95038.48;;;30.03;28.48
6851;BME280;3464;42.728;23.296;2023-05-24T10:15:13;95047.09;;;28.65;29.15
6851;BME280;3464;42.728;23.296;2023-05-24T10:17:41;95037.60;;;29.10;28.92
6851;BME280;3464;42.728;23.296;2023-05-24T10:20:09;95040.53;;;28.79;29.52
6851;BME280;3464;42.728;23.296;2023-05-24T10:22:39;95037.56;;;29.23;29.73
6851;BME280;3464;42.728;23.296;2023-05-24T10:25:20;95042.66;;;30.17;28.20
6851;BME280;3464;42.728;23.296;2023-05-24T10:27:45;95034.11;;;30.69;28.17
6851;BME280;3464;42.728;23.296;2023-05-24T10:30:15;95036.41;;;30.73;28.03
6851;BME280;3464;42.728;23.296;2023-05-24T10:32:51;95028.03;;;30.69;27.54
6851;BME280;3464;42.728;23.296;2023-05-24T10:35:19;95026.98;;;29.88;28.50
6851;BME280;3464;42.728;23.296;2023-05-24T10:37:48;95033.95;;;30.00;28.35
6851;BME280;3464;42.728;23.296;2023-05-24T10:40:19;95025.48;;;29.91;28.26
6851;BME280;3464;42.728;23.296;2023-05-24T10:42:45;95017.00;;;29.77;29.04
6851;BME280;3464;42.728;23.296;2023-05-24T10:45:33;95017.06;;;29.88;29.28
6851;BME280;3464;42.728;23.296;2023-05-24T10:48:01;95014.76;;;30.20;29.21
6851;BME280;3464;42.728;23.296;2023-05-24T10:50:26;95011.73;;;30.72;29.90
6851;BME280;3464;42.728;23.296;2023-05-24T10:53:09;95007.27;;;30.92;30.45
6851;BME280;3464;42.728;23.296;2023-05-24T10:55:21;95004.42;;;31.46;38.43
6851;BME280;3464;42.728;23.296;2023-05-24T10:57:47;95001.84;;;32.06;29.18
6851;BME280;3464;42.728;23.296;2023-05-24T11:00:27;94999.31;;;30.94;27.85
6851;BME280;3464;42.728;23.296;2023-05-24T11:03:01;95005.92;;;29.80;28.76
6851;BME280;3464;42.728;23.296;2023-05-24T11:05:33;94999.55;;;29.04;29.60
6851;BME280;3464;42.728;23.296;2023-05-24T11:07:59;95002.91;;;30.04;30.88
6851;BME280;3464;42.728;23.296;2023-05-24T11:10:29;95007.71;;;30.03;29.69
6851;BME280;3464;42.728;23.296;2023-05-24T11:12:59;95006.48;;;29.35;29.15
6851;BME280;3464;42.728;23.296;2023-05-24T11:15:27;95000.84;;;29.97;28.74
6851;BME280;3464;42.728;23.296;2023-05-24T11:18:13;94999.24;;;29.58;29.78
6851;BME280;3464;42.728;23.296;2023-05-24T11:20:43;94994.98;;;30.47;28.73
6851;BME280;3464;42.728;23.296;2023-05-24T11:23:10;94988.72;;;30.85;28.59
6851;BME280;3464;42.728;23.296;2023-05-24T11:25:39;94989.26;;;31.23;28.00
6851;BME280;3464;42.728;23.296;2023-05-24T11:28:08;94991.77;;;31.75;27.42
6851;BME280;3464;42.728;23.296;2023-05-24T11:30:41;94989.84;;;31.21;28.21
6851;BME280;3464;42.728;23.296;2023-05-24T11:33:16;94980.05;;;31.63;27.99
6851;BME280;3464;42.728;23.296;2023-05-24T11:35:43;94987.91;;;31.74;27.96
6851;BME280;3464;42.728;23.296;2023-05-24T11:38:10;94982.72;;;31.46;27.75
6851;BME280;3464;42.728;23.296;2023-05-24T11:40:36;94979.95;;;32.03;27.00
6851;BME280;3464;42.728;23.296;2023-05-24T11:43:05;94975.81;;;32.59;26.49
6851;BME280;3464;42.728;23.296;2023-05-24T11:45:30;94975.98;;;30.76;28.24
6851;BME280;3464;42.728;23.296;2023-05-24T11:47:57;94972.63;;;31.20;28.62
6851;BME280;3464;42.728;23.296;2023-05-24T11:50:24;94973.80;;;31.88;27.66
6851;BME280;3464;42.728;23.296;2023-05-24T11:52:51;94963.97;;;32.13;27.28
6851;BME280;3464;42.728;23.296;2023-05-24T11:55:22;94959.90;;;31.33;28.10
6851;BME280;3464;42.728;23.296;2023-05-24T11:57:51;94961.02;;;31.46;27.91
6851;BME280;3464;42.728;23.296;2023-05-24T12:00:23;94964.30;;;30.70;28.80
6851;BME280;3464;42.728;23.296;2023-05-24T12:02:49;94972.97;;;30.81;28.35
6851;BME280;3464;42.728;23.296;2023-05-24T12:05:17;94961.16;;;31.17;28.39
6851;BME280;3464;42.728;23.296;2023-05-24T12:07:43;94958.83;;;31.69;27.84
6851;BME280;3464;42.728;23.296;2023-05-24T12:10:10;94958.73;;;32.40;27.37
6851;BME280;3464;42.728;23.296;2023-05-24T12:12:41;94947.19;;;32.22;27.84
6851;BME280;3464;42.728;23.296;2023-05-24T12:15:07;94947.77;;;32.57;27.07
6851;BME280;3464;42.728;23.296;2023-05-24T12:17:34;94960.02;;;31.32;29.17
6851;BME280;3464;42.728;23.296;2023-05-24T12:20:01;94953.06;;;31.76;28.08
6851;BME280;3464;42.728;23.296;2023-05-24T12:22:27;94952.91;;;31.28;28.57
6851;BME280;3464;42.728;23.296;2023-05-24T12:24:54;94944.50;;;31.91;28.11
6851;BME280;3464;42.728;23.296;2023-05-24T12:27:24;94935.28;;;30.99;29.73
6851;BME280;3464;42.728;23.296;2023-05-24T12:29:48;94938.77;;;31.59;27.72
6851;BME280;3464;42.728;23.296;2023-05-24T12:32:15;94932.44;;;32.06;26.75
6851;BME280;3464;42.728;23.296;2023-05-24T12:34:42;94926.13;;;32.61;26.13
6851;BME280;3464;42.728;23.296;2023-05-24T12:37:11;94926.48;;;33.33;25.85
6851;BME280;3464;42.728;23.296;2023-05-24T12:39:40;94915.34;;;33.16;26.43
6851;BME280;3464;42.728;23.296;2023-05-24T12:42:07;94917.34;;;33.03;26.35
6851;BME280;3464;42.728;23.296;2023-05-24T12:44:36;94913.72;;;32.64;26.90
6851;BME280;3464;42.728;23.296;2023-05-24T12:47:05;94913.58;;;32.29;27.00
6851;BME280;3464;42.728;23.296;2023-05-24T12:49:31;94920.03;;;32.14;27.90
6851;BME280;3464;42.728;23.296;2023-05-24T12:51:59;94924.33;;;32.04;28.00
6851;BME280;3464;42.728;23.296;2023-05-24T12:54:26;94920.97;;;31.04;28.68
6851;BME280;3464;42.728;23.296;2023-05-24T12:56:53;94919.32;;;31.80;28.20
6851;BME280;3464;42.728;23.296;2023-05-24T12:59:19;94916.91;;;32.57;27.90
6851;BME280;3464;42.728;23.296;2023-05-24T13:01:47;94920.22;;;33.35;26.71
6851;BME280;3464;42.728;23.296;2023-05-24T13:04:13;94915.55;;;33.34;27.20
6851;BME280;3464;42.728;23.296;2023-05-24T13:06:41;94911.44;;;32.02;27.26
6851;BME280;3464;42.728;23.296;2023-05-24T13:09:08;94912.73;;;31.70;28.23
6851;BME280;3464;42.728;23.296;2023-05-24T13:11:37;94917.30;;;31.07;28.82
6851;BME280;3464;42.728;23.296;2023-05-24T13:14:07;94917.12;;;31.03;28.94
6851;BME280;3464;42.728;23.296;2023-05-24T13:16:35;94910.80;;;31.40;28.65
6851;BME280;3464;42.728;23.296;2023-05-24T13:19:02;94913.53;;;30.48;29.62
6851;BME280;3464;42.728;23.296;2023-05-24T13:21:29;94907.37;;;31.01;29.27
6851;BME280;3464;42.728;23.296;2023-05-24T13:23:57;94909.99;;;30.32;29.97
6851;BME280;3464;42.728;23.296;2023-05-24T13:26:24;94908.94;;;29.99;30.62
6851;BME280;3464;42.728;23.296;2023-05-24T13:28:53;94915.75;;;29.71;30.35
6851;BME280;3464;42.728;23.296;2023-05-24T13:31:19;94912.20;;;29.12;31.55